sensor_id;sensor_type;location;lat;lon;timestamp;temperature;humidity
37281;DHT22;23169;41.804;12.596;2023-02-15T00:00:20;8.80;1.00
37281;DHT22;23169;41.804;12.596;2023-02-15T00:02:47;9.00;39.80
37281;DHT22;23169;41.804;12.596;2023-02-15T00:05:15;9.10;16.20
37281;DHT22;23169;41.804;12.596;2023-02-15T00:07:42;8.40;15.10
37281;DHT22;23169;41.804;12.596;2023-02-15T00:10:10;8.60;1.00
37281;DHT22;23169;41.804;12.596;2023-02-15T00:12:39;8.20;17.60
37281;DHT22;23169;41.804;12.596;2023-02-15T00:15:07;8.60;1.00
37281;DHT22;23169;41.804;12.596;2023-02-15T00:17:34;8.50;1.00
37281;DHT22;23169;41.804;12.596;2023-02-15T00:20:02;8.60;16.50
37281;DHT22;23169;41.804;12.596;2023-02-15T00:22:29;8.80;24.50
37281;DHT22;23169;41.804;12.596;2023-02-15T00:24:57;8.60;1.00
37281;DHT22;23169;41.804;12.596;2023-02-15T00:27:24;9.20;13.40
37281;DHT22;23169;41.804;12.596;2023-02-15T00:29:51;8.30;23.50
37281;DHT22;23169;41.804;12.596;2023-02-15T00:32:19;8.60;1.00
37281;DHT22;23169;41.804;12.596;2023-02-15T00:34:46;8.50;5.30
37281;DHT22;23169;41.804;12.596;2023-02-15T00:37:13;8.60;13.20
37281;DHT22;23169;41.804;12.596;2023-02-15T00:39:40;8.30;20.20
37281;DHT22;23169;41.804;12.596;2023-02-15T00:42:08;7.90;20.40
37281;DHT22;23169;41.804;12.596;2023-02-15T00:47:03;8.10;5.90
37281;DHT22;23169;41.804;12.596;2023-02-15T00:49:31;8.40;1.00
37281;DHT22;23169;41.804;12.596;2023-02-15T00:51:58;8.30;14.10
37281;DHT22;23169;41.804;12.596;2023-02-15T00:54:25;8.30;1.00
37281;DHT22;23169;41.804;12.596;2023-02-15T00:56:53;8.30;1.00
37281;DHT22;23169;41.804;12.596;2023-02-15T00:59:20;8.00;20.90
37281;DHT22;23169;41.804;12.596;2023-02-15T01:01:47;8.00;25.90
37281;DHT22;23169;41.804;12.596;2023-02-15T01:04:16;8.50;11.60
37281;DHT22;23169;41.804;12.596;2023-02-15T01:06:44;7.40;15.80
37281;DHT22;23169;41.804;12.596;2023-02-15T01:09:13;7.80;23.20
37281;DHT22;23169;41.804;12.596;2023-02-15T01:14:12;7.50;1.00
37281;DHT22;23169;41.804;12.596;2023-02-15T01:16:42;7.30;18.10
37281;DHT22;23169;41.804;12.596;2023-02-15T01:19:10;7.50;1.00
37281;DHT22;23169;41.804;12.596;2023-02-15T01:21:39;7.90;12.20
37281;DHT22;23169;41.804;12.596;2023-02-15T01:24:13;7.50;18.30
37281;DHT22;23169;41.804;12.596;2023-02-15T01:26:41;7.10;10.60
37281;DHT22;23169;41.804;12.596;2023-02-15T01:29:10;7.50;21.50
37281;DHT22;23169;41.804;12.596;2023-02-15T01:31:39;7.20;7.60
37281;DHT22;23169;41.804;12.596;2023-02-15T01:34:07;7.10;21.20
37281;DHT22;23169;41.804;12.596;2023-02-15T01:36:37;6.90;29.00
37281;DHT22;23169;41.804;12.596;2023-02-15T01:39:06;7.60;20.80
37281;DHT22;23169;41.804;12.596;2023-02-15T01:41:36;7.20;30.00
37281;DHT22;23169;41.804;12.596;2023-02-15T01:50:10;7.40;19.20
37281;DHT22;23169;41.804;12.596;2023-02-15T01:55:20;7.30;26.50
37281;DHT22;23169;41.804;12.596;2023-02-15T02:00:20;7.40;24.20
37281;DHT22;23169;41.804;12.596;2023-02-15T02:02:56;7.50;26.00
37281;DHT22;23169;41.804;12.596;2023-02-15T02:05:25;7.30;29.80
37281;DHT22;23169;41.804;12.596;2023-02-15T02:07:56;7.50;21.20
37281;DHT22;23169;41.804;12.596;2023-02-15T02:10:27;6.40;17.40
37281;DHT22;23169;41.804;12.596;2023-02-15T02:12:59;7.00;25.80
37281;DHT22;23169;41.804;12.596;2023-02-15T02:15:37;7.00;24.00
37281;DHT22;23169;41.804;12.596;2023-02-15T02:18:17;6.60;21.70
37281;DHT22;23169;41.804;12.596;2023-02-15T02:26:17;8.10;26.50
37281;DHT22;23169;41.804;12.596;2023-02-15T02:41:01;7.00;19.50
37281;DHT22;23169;41.804;12.596;2023-02-15T02:44:18;7.20;19.20
37281;DHT22;23169;41.804;12.596;2023-02-15T02:49:52;7.60;20.40
37281;DHT22;23169;41.804;12.596;2023-02-15T02:52:42;7.10;23.80
37281;DHT22;23169;41.804;12.596;2023-02-15T02:55:34;7.80;28.80
37281;DHT22;23169;41.804;12.596;2023-02-15T02:58:10;7.40;1.00
37281;DHT22;23169;41.804;12.596;2023-02-15T03:01:05;7.80;30.00
37281;DHT22;23169;41.804;12.596;2023-02-15T03:03:41;7.50;17.40
37281;DHT22;23169;41.804;12.596;2023-02-15T03:06:36;7.50;24.50
37281;DHT22;23169;41.804;12.596;2023-02-15T03:09:14;7.50;21.00
37281;DHT22;23169;41.804;12.596;2023-02-15T03:11:45;7.40;23.80
37281;DHT22;23169;41.804;12.596;2023-02-15T03:14:15;6.90;18.80
37281;DHT22;23169;41.804;12.596;2023-02-15T03:16:47;7.30;24.60
37281;DHT22;23169;41.804;12.596;2023-02-15T03:19:32;7.60;13.70
37281;DHT22;23169;41.804;12.596;2023-02-15T03:22:08;7.90;30.00
37281;DHT22;23169;41.804;12.596;2023-02-15T03:24:46;7.30;28.00
37281;DHT22;23169;41.804;12.596;2023-02-15T03:27:24;7.00;19.70
37281;DHT22;23169;41.804;12.596;2023-02-15T03:29:55;6.80;23.90
37281;DHT22;23169;41.804;12.596;2023-02-15T03:32:28;6.70;20.20
37281;DHT22;23169;41.804;12.596;2023-02-15T03:34:58;6.90;25.00
37281;DHT22;23169;41.804;12.596;2023-02-15T03:40:07;7.00;28.90
37281;DHT22;23169;41.804;12.596;2023-02-15T03:46:10;6.90;27.60
37281;DHT22;23169;41.804;12.596;2023-02-15T03:49:05;7.10;24.40
37281;DHT22;23169;41.804;12.596;2023-02-15T03:51:37;6.50;35.80
37281;DHT22;23169;41.804;12.596;2023-02-15T03:54:12;6.80;31.10
37281;DHT22;23169;41.804;12.596;2023-02-15T03:56:42;6.70;37.60
37281;DHT22;23169;41.804;12.596;2023-02-15T03:59:30;6.70;39.80
37281;DHT22;23169;41.804;12.596;2023-02-15T04:02:29;7.20;30.00
37281;DHT22;23169;41.804;12.596;2023-02-15T04:04:58;5.90;36.20
37281;DHT22;23169;41.804;12.596;2023-02-15T04:09:56;6.40;53.20
37281;DHT22;23169;41.804;12.596;2023-02-15T04:12:43;6.00;42.30
37281;DHT22;23169;41.804;12.596;2023-02-15T04:15:13;6.10;33.40
37281;DHT22;23169;41.804;12.596;2023-02-15T04:18:03;6.00;46.20
37281;DHT22;23169;41.804;12.596;2023-02-15T04:20:31;6.20;36.00
37281;DHT22;23169;41.804;12.596;2023-02-15T04:23:19;6.30;41.10
37281;DHT22;23169;41.804;12.596;2023-02-15T04:26:05;5.50;36.10
37281;DHT22;23169;41.804;12.596;2023-02-15T04:31:03;6.10;39.20
37281;DHT22;23169;41.804;12.596;2023-02-15T04:33:32;5.30;44.70
37281;DHT22;23169;41.804;12.596;2023-02-15T04:36:01;5.10;43.80
37281;DHT22;23169;41.804;12.596;2023-02-15T04:40:59;5.50;45.00
37281;DHT22;23169;41.804;12.596;2023-02-15T04:43:46;5.70;26.00
37281;DHT22;23169;41.804;12.596;2023-02-15T04:46:15;6.10;52.80
37281;DHT22;23169;41.804;12.596;2023-02-15T04:48:44;5.50;47.80
37281;DHT22;23169;41.804;12.596;2023-02-15T04:51:12;3.40;42.70
37281;DHT22;23169;41.804;12.596;2023-02-15T04:53:41;5.90;44.80
37281;DHT22;23169;41.804;12.596;2023-02-15T04:56:10;5.50;51.80
37281;DHT22;23169;41.804;12.596;2023-02-15T04:58:39;5.40;48.20
37281;DHT22;23169;41.804;12.596;2023-02-15T05:01:10;5.50;1.00
37281;DHT22;23169;41.804;12.596;2023-02-15T05:03:39;5.20;52.50
37281;DHT22;23169;41.804;12.596;2023-02-15T05:06:08;5.30;56.50
37281;DHT22;23169;41.804;12.596;2023-02-15T05:08:38;5.10;50.50
37281;DHT22;23169;41.804;12.596;2023-02-15T05:11:06;5.70;38.40
37281;DHT22;23169;41.804;12.596;2023-02-15T05:13:34;5.10;57.60
37281;DHT22;23169;41.804;12.596;2023-02-15T05:16:02;5.80;46.10
37281;DHT22;23169;41.804;12.596;2023-02-15T05:18:33;5.70;51.00
37281;DHT22;23169;41.804;12.596;2023-02-15T05:21:01;5.40;54.50
37281;DHT22;23169;41.804;12.596;2023-02-15T05:26:03;5.30;55.00
37281;DHT22;23169;41.804;12.596;2023-02-15T05:28:50;5.20;52.80
37281;DHT22;23169;41.804;12.596;2023-02-15T05:31:19;5.10;51.00
37281;DHT22;23169;41.804;12.596;2023-02-15T05:33:47;5.30;43.00
37281;DHT22;23169;41.804;12.596;2023-02-15T05:36:15;5.60;52.20
37281;DHT22;23169;41.804;12.596;2023-02-15T05:38:44;6.20;1.00
37281;DHT22;23169;41.804;12.596;2023-02-15T05:41:15;6.50;56.10
37281;DHT22;23169;41.804;12.596;2023-02-15T05:43:44;5.60;50.10
37281;DHT22;23169;41.804;12.596;2023-02-15T05:48:44;5.80;47.90
37281;DHT22;23169;41.804;12.596;2023-02-15T05:51:16;6.20;49.20
37281;DHT22;23169;41.804;12.596;2023-02-15T05:53:52;5.90;44.00
37281;DHT22;23169;41.804;12.596;2023-02-15T05:56:20;6.10;48.00
37281;DHT22;23169;41.804;12.596;2023-02-15T05:58:48;5.90;56.00
37281;DHT22;23169;41.804;12.596;2023-02-15T06:01:18;6.00;50.90
37281;DHT22;23169;41.804;12.596;2023-02-15T06:03:47;5.70;47.80
37281;DHT22;23169;41.804;12.596;2023-02-15T06:08:45;5.60;51.40
37281;DHT22;23169;41.804;12.596;2023-02-15T06:11:13;5.30;24.10
37281;DHT22;23169;41.804;12.596;2023-02-15T06:13:41;5.70;56.10
37281;DHT22;23169;41.804;12.596;2023-02-15T06:16:10;5.30;47.40
37281;DHT22;23169;41.804;12.596;2023-02-15T06:18:38;5.70;1.00
37281;DHT22;23169;41.804;12.596;2023-02-15T06:21:07;5.70;48.80
37281;DHT22;23169;41.804;12.596;2023-02-15T06:23:36;5.60;37.40
37281;DHT22;23169;41.804;12.596;2023-02-15T06:26:04;5.00;52.80
37281;DHT22;23169;41.804;12.596;2023-02-15T06:31:03;5.00;50.20
37281;DHT22;23169;41.804;12.596;2023-02-15T06:33:31;4.90;49.10
37281;DHT22;23169;41.804;12.596;2023-02-15T06:36:04;5.20;45.30
37281;DHT22;23169;41.804;12.596;2023-02-15T06:38:33;5.40;45.80
37281;DHT22;23169;41.804;12.596;2023-02-15T06:41:01;5.30;56.20
37281;DHT22;23169;41.804;12.596;2023-02-15T06:43:30;5.00;55.20
37281;DHT22;23169;41.804;12.596;2023-02-15T06:45:59;6.10;51.00
37281;DHT22;23169;41.804;12.596;2023-02-15T06:48:29;5.40;57.50
37281;DHT22;23169;41.804;12.596;2023-02-15T06:50:57;6.10;40.80
37281;DHT22;23169;41.804;12.596;2023-02-15T06:56:04;5.90;48.20
37281;DHT22;23169;41.804;12.596;2023-02-15T06:58:38;5.80;1.00
37281;DHT22;23169;41.804;12.596;2023-02-15T07:01:08;5.80;44.00
37281;DHT22;23169;41.804;12.596;2023-02-15T07:03:36;6.00;48.30
37281;DHT22;23169;41.804;12.596;2023-02-15T07:06:04;6.20;57.40
37281;DHT22;23169;41.804;12.596;2023-02-15T07:08:38;6.40;38.70
37281;DHT22;23169;41.804;12.596;2023-02-15T07:13:55;6.60;41.90
37281;DHT22;23169;41.804;12.596;2023-02-15T07:16:24;7.10;31.70
37281;DHT22;23169;41.804;12.596;2023-02-15T07:18:52;7.30;29.40
37281;DHT22;23169;41.804;12.596;2023-02-15T07:21:20;7.50;32.50
37281;DHT22;23169;41.804;12.596;2023-02-15T07:23:48;6.80;26.20
37281;DHT22;23169;41.804;12.596;2023-02-15T07:26:17;10.20;28.50
37281;DHT22;23169;41.804;12.596;2023-02-15T07:28:46;7.10;27.90
37281;DHT22;23169;41.804;12.596;2023-02-15T07:31:16;7.50;13.10
37281;DHT22;23169;41.804;12.596;2023-02-15T07:33:45;7.70;27.90
37281;DHT22;23169;41.804;12.596;2023-02-15T07:36:14;7.40;24.70
37281;DHT22;23169;41.804;12.596;2023-02-15T07:38:42;7.70;20.00
37281;DHT22;23169;41.804;12.596;2023-02-15T07:41:12;7.80;21.40
37281;DHT22;23169;41.804;12.596;2023-02-15T07:43:43;8.40;16.60
37281;DHT22;23169;41.804;12.596;2023-02-15T07:46:14;8.00;14.00
37281;DHT22;23169;41.804;12.596;2023-02-15T07:48:43;8.40;16.90
37281;DHT22;23169;41.804;12.596;2023-02-15T07:51:13;8.50;4.10
37281;DHT22;23169;41.804;12.596;2023-02-15T07:53:42;8.80;7.20
37281;DHT22;23169;41.804;12.596;2023-02-15T07:56:13;9.20;11.50
37281;DHT22;23169;41.804;12.596;2023-02-15T07:58:42;8.80;1.00
37281;DHT22;23169;41.804;12.596;2023-02-15T08:01:32;9.20;5.00
37281;DHT22;23169;41.804;12.596;2023-02-15T08:04:01;9.10;1.00
37281;DHT22;23169;41.804;12.596;2023-02-15T08:06:32;9.30;1.00
37281;DHT22;23169;41.804;12.596;2023-02-15T08:09:05;9.40;1.00
37281;DHT22;23169;41.804;12.596;2023-02-15T08:11:36;9.30;1.00
37281;DHT22;23169;41.804;12.596;2023-02-15T08:16:40;8.80;3.80
37281;DHT22;23169;41.804;12.596;2023-02-15T08:21:51;8.30;10.20
37281;DHT22;23169;41.804;12.596;2023-02-15T08:24:22;9.10;17.90
37281;DHT22;23169;41.804;12.596;2023-02-15T08:26:51;9.10;10.80
37281;DHT22;23169;41.804;12.596;2023-02-15T08:29:22;8.80;1.00
37281;DHT22;23169;41.804;12.596;2023-02-15T08:31:54;8.50;10.80
37281;DHT22;23169;41.804;12.596;2023-02-15T08:34:22;8.40;11.60
37281;DHT22;23169;41.804;12.596;2023-02-15T08:36:51;8.90;1.00
37281;DHT22;23169;41.804;12.596;2023-02-15T08:39:20;8.90;4.70
37281;DHT22;23169;41.804;12.596;2023-02-15T08:41:49;9.20;17.00
37281;DHT22;23169;41.804;12.596;2023-02-15T08:44:18;9.40;13.60
37281;DHT22;23169;41.804;12.596;2023-02-15T08:46:48;9.20;1.00
37281;DHT22;23169;41.804;12.596;2023-02-15T08:49:21;9.00;1.00
37281;DHT22;23169;41.804;12.596;2023-02-15T08:51:50;9.30;1.00
37281;DHT22;23169;41.804;12.596;2023-02-15T08:54:20;9.40;1.00
37281;DHT22;23169;41.804;12.596;2023-02-15T08:56:49;9.60;1.00
37281;DHT22;23169;41.804;12.596;2023-02-15T08:59:20;9.70;1.00
37281;DHT22;23169;41.804;12.596;2023-02-15T09:01:50;9.80;1.00
37281;DHT22;23169;41.804;12.596;2023-02-15T09:04:21;10.40;1.00
37281;DHT22;23169;41.804;12.596;2023-02-15T09:06:51;10.10;1.00
37281;DHT22;23169;41.804;12.596;2023-02-15T09:09:19;10.30;1.00
37281;DHT22;23169;41.804;12.596;2023-02-15T09:11:49;10.40;1.00
37281;DHT22;23169;41.804;12.596;2023-02-15T09:14:20;10.60;1.00
37281;DHT22;23169;41.804;12.596;2023-02-15T09:16:49;10.70;1.00
37281;DHT22;23169;41.804;12.596;2023-02-15T09:19:22;10.80;1.00
37281;DHT22;23169;41.804;12.596;2023-02-15T09:21:51;11.00;1.00
37281;DHT22;23169;41.804;12.596;2023-02-15T09:24:20;11.10;1.00
37281;DHT22;23169;41.804;12.596;2023-02-15T09:26:48;11.30;1.00
37281;DHT22;23169;41.804;12.596;2023-02-15T09:29:18;11.40;1.00
37281;DHT22;23169;41.804;12.596;2023-02-15T09:31:48;11.40;1.00
37281;DHT22;23169;41.804;12.596;2023-02-15T09:34:20;11.60;1.00
37281;DHT22;23169;41.804;12.596;2023-02-15T09:36:49;11.70;1.00
37281;DHT22;23169;41.804;12.596;2023-02-15T09:39:25;11.80;1.00
37281;DHT22;23169;41.804;12.596;2023-02-15T10:18:05;14.20;1.00
37281;DHT22;23169;41.804;12.596;2023-02-15T10:20:55;14.40;1.00
37281;DHT22;23169;41.804;12.596;2023-02-15T10:28:51;15.10;1.00
37281;DHT22;23169;41.804;12.596;2023-02-15T10:34:19;15.40;1.00
37281;DHT22;23169;41.804;12.596;2023-02-15T11:01:36;16.30;1.00
37281;DHT22;23169;41.804;12.596;2023-02-15T11:04:25;16.40;1.00
37281;DHT22;23169;41.804;12.596;2023-02-15T11:07:03;16.70;1.00
37281;DHT22;23169;41.804;12.596;2023-02-15T11:09:44;16.80;1.00
37281;DHT22;23169;41.804;12.596;2023-02-15T11:12:19;16.90;1.00
37281;DHT22;23169;41.804;12.596;2023-02-15T11:15:15;15.70;1.00
37281;DHT22;23169;41.804;12.596;2023-02-15T11:17:51;17.20;1.00
37281;DHT22;23169;41.804;12.596;2023-02-15T11:20:30;17.40;1.00
37281;DHT22;23169;41.804;12.596;2023-02-15T11:23:01;17.50;1.00
37281;DHT22;23169;41.804;12.596;2023-02-15T11:25:32;17.30;1.00
37281;DHT22;23169;41.804;12.596;2023-02-15T11:28:05;17.20;1.00
37281;DHT22;23169;41.804;12.596;2023-02-15T11:30:44;17.10;1.00
37281;DHT22;23169;41.804;12.596;2023-02-15T11:33:36;17.10;1.00
37281;DHT22;23169;41.804;12.596;2023-02-15T11:36:15;17.10;1.00
37281;DHT22;23169;41.804;12.596;2023-02-15T11:38:48;17.10;1.00
37281;DHT22;23169;41.804;12.596;2023-02-15T11:41:24;17.10;1.00
37281;DHT22;23169;41.804;12.596;2023-02-15T11:44:18;17.00;1.00
37281;DHT22;23169;41.804;12.596;2023-02-15T11:46:52;17.00;1.00
37281;DHT22;23169;41.804;12.596;2023-02-15T11:49:32;17.10;1.00
37281;DHT22;23169;41.804;12.596;2023-02-15T11:52:04;17.20;1.00
37281;DHT22;23169;41.804;12.596;2023-02-15T11:54:36;17.50;1.00
37281;DHT22;23169;41.804;12.596;2023-02-15T12:00:00;18.10;1.00
37281;DHT22;23169;41.804;12.596;2023-02-15T12:02:31;18.80;1.00
37281;DHT22;23169;41.804;12.596;2023-02-15T12:05:09;19.50;1.00
37281;DHT22;23169;41.804;12.596;2023-02-15T12:07:53;19.90;1.00
37281;DHT22;23169;41.804;12.596;2023-02-15T12:10:29;19.90;1.00
37281;DHT22;23169;41.804;12.596;2023-02-15T12:13:12;20.20;1.00
37281;DHT22;23169;41.804;12.596;2023-02-15T12:15:45;20.40;1.00
37281;DHT22;23169;41.804;12.596;2023-02-15T12:18:40;20.40;1.00
37281;DHT22;23169;41.804;12.596;2023-02-15T12:21:10;20.30;1.00
37281;DHT22;23169;41.804;12.596;2023-02-15T12:23:50;20.70;1.00
37281;DHT22;23169;41.804;12.596;2023-02-15T12:26:30;20.80;1.00
37281;DHT22;23169;41.804;12.596;2023-02-15T12:29:12;21.10;1.00
37281;DHT22;23169;41.804;12.596;2023-02-15T12:31:49;21.30;1.00
37281;DHT22;23169;41.804;12.596;2023-02-15T12:34:30;21.50;1.00
37281;DHT22;23169;41.804;12.596;2023-02-15T12:37:02;21.80;1.00
37281;DHT22;23169;41.804;12.596;2023-02-15T12:39:36;22.00;1.00
37281;DHT22;23169;41.804;12.596;2023-02-15T12:42:14;22.20;1.00
37281;DHT22;23169;41.804;12.596;2023-02-15T12:47:23;22.10;1.00
37281;DHT22;23169;41.804;12.596;2023-02-15T12:50:24;22.70;1.00
37281;DHT22;23169;41.804;12.596;2023-02-15T12:53:07;23.30;1.00
37281;DHT22;23169;41.804;12.596;2023-02-15T12:55:36;23.50;1.00
37281;DHT22;23169;41.804;12.596;2023-02-15T13:00:43;23.90;1.00
37281;DHT22;23169;41.804;12.596;2023-02-15T13:03:20;23.70;1.00
37281;DHT22;23169;41.804;12.596;2023-02-15T13:05:55;24.10;1.00
37281;DHT22;23169;41.804;12.596;2023-02-15T13:08:31;23.30;1.00
37281;DHT22;23169;41.804;12.596;2023-02-15T13:11:10;23.40;1.00
37281;DHT22;23169;41.804;12.596;2023-02-15T13:13:55;23.80;1.00
37281;DHT22;23169;41.804;12.596;2023-02-15T13:16:34;24.30;1.00
37281;DHT22;23169;41.804;12.596;2023-02-15T13:21:45;24.50;1.00
37281;DHT22;23169;41.804;12.596;2023-02-15T13:26:43;24.40;1.00
37281;DHT22;23169;41.804;12.596;2023-02-15T13:29:27;24.50;1.00
37281;DHT22;23169;41.804;12.596;2023-02-15T13:31:58;24.80;1.00
37281;DHT22;23169;41.804;12.596;2023-02-15T13:34:36;24.10;1.00
37281;DHT22;23169;41.804;12.596;2023-02-15T13:37:33;25.00;1.00
37281;DHT22;23169;41.804;12.596;2023-02-15T13:42:38;24.80;1.00
37281;DHT22;23169;41.804;12.596;2023-02-15T13:56:21;24.00;1.00
37281;DHT22;23169;41.804;12.596;2023-02-15T14:01:58;24.20;1.00
37281;DHT22;23169;41.804;12.596;2023-02-15T14:16:14;25.30;1.00
37281;DHT22;23169;41.804;12.596;2023-02-15T14:18:53;25.50;1.00
37281;DHT22;23169;41.804;12.596;2023-02-15T14:21:43;25.70;1.00
37281;DHT22;23169;41.804;12.596;2023-02-15T14:24:21;25.80;1.00
37281;DHT22;23169;41.804;12.596;2023-02-15T14:26:59;26.10;1.00
37281;DHT22;23169;41.804;12.596;2023-02-15T14:32:42;26.00;1.00
37281;DHT22;23169;41.804;12.596;2023-02-15T14:35:16;26.10;1.00
37281;DHT22;23169;41.804;12.596;2023-02-15T14:49:14;25.40;1.00
37281;DHT22;23169;41.804;12.596;2023-02-15T14:56:46;24.20;1.00
37281;DHT22;23169;41.804;12.596;2023-02-15T14:59:20;24.20;1.00
37281;DHT22;23169;41.804;12.596;2023-02-15T15:04:41;24.60;1.00
37281;DHT22;23169;41.804;12.596;2023-02-15T15:07:20;24.20;1.00
37281;DHT22;23169;41.804;12.596;2023-02-15T15:12:49;24.20;1.00
37281;DHT22;23169;41.804;12.596;2023-02-15T15:18:07;24.80;1.00
37281;DHT22;23169;41.804;12.596;2023-02-15T15:20:49;24.20;1.00
37281;DHT22;23169;41.804;12.596;2023-02-15T15:25:57;23.70;1.00
37281;DHT22;23169;41.804;12.596;2023-02-15T15:31:18;22.50;1.00
37281;DHT22;23169;41.804;12.596;2023-02-15T15:48:37;20.60;1.00
37281;DHT22;23169;41.804;12.596;2023-02-15T15:51:25;20.40;1.00
37281;DHT22;23169;41.804;12.596;2023-02-15T15:53:55;20.20;1.00
37281;DHT22;23169;41.804;12.596;2023-02-15T15:56:30;20.00;1.00
37281;DHT22;23169;41.804;12.596;2023-02-15T15:59:11;19.70;1.00
37281;DHT22;23169;41.804;12.596;2023-02-15T16:01:45;19.00;1.00
37281;DHT22;23169;41.804;12.596;2023-02-15T16:04:26;18.80;1.00
37281;DHT22;23169;41.804;12.596;2023-02-15T16:06:56;19.00;1.00
37281;DHT22;23169;41.804;12.596;2023-02-15T16:09:27;19.20;1.00
37281;DHT22;23169;41.804;12.596;2023-02-15T16:11:59;19.20;1.00
37281;DHT22;23169;41.804;12.596;2023-02-15T16:14:37;19.10;1.00
37281;DHT22;23169;41.804;12.596;2023-02-15T16:17:29;18.90;1.00
37281;DHT22;23169;41.804;12.596;2023-02-15T16:20:14;18.70;1.00
37281;DHT22;23169;41.804;12.596;2023-02-15T16:22:46;18.60;1.00
37281;DHT22;23169;41.804;12.596;2023-02-15T16:27:53;17.80;1.00
37281;DHT22;23169;41.804;12.596;2023-02-15T16:32:55;17.20;1.00
37281;DHT22;23169;41.804;12.596;2023-02-15T16:35:24;16.80;1.00
37281;DHT22;23169;41.804;12.596;2023-02-15T16:37:53;16.50;1.00
37281;DHT22;23169;41.804;12.596;2023-02-15T16:43:01;15.70;1.00
37281;DHT22;23169;41.804;12.596;2023-02-15T16:45:30;15.30;1.00
37281;DHT22;23169;41.804;12.596;2023-02-15T16:48:01;16.00;1.00
37281;DHT22;23169;41.804;12.596;2023-02-15T16:50:36;14.60;1.00
37281;DHT22;23169;41.804;12.596;2023-02-15T16:53:07;14.30;1.00
37281;DHT22;23169;41.804;12.596;2023-02-15T16:55:42;14.10;1.00
37281;DHT22;23169;41.804;12.596;2023-02-15T16:58:16;13.90;1.00
37281;DHT22;23169;41.804;12.596;2023-02-15T17:00:45;13.70;1.00
37281;DHT22;23169;41.804;12.596;2023-02-15T17:03:22;13.40;1.00
37281;DHT22;23169;41.804;12.596;2023-02-15T17:05:57;13.40;1.00
37281;DHT22;23169;41.804;12.596;2023-02-15T17:08:31;13.30;1.00
37281;DHT22;23169;41.804;12.596;2023-02-15T17:13:29;12.90;1.00
37281;DHT22;23169;41.804;12.596;2023-02-15T17:21:10;12.80;1.00
37281;DHT22;23169;41.804;12.596;2023-02-15T17:23:46;12.70;1.00
37281;DHT22;23169;41.804;12.596;2023-02-15T17:26:19;12.70;1.00
37281;DHT22;23169;41.804;12.596;2023-02-15T17:29:35;12.60;1.00
37281;DHT22;23169;41.804;12.596;2023-02-15T17:31:48;12.50;1.00
37281;DHT22;23169;41.804;12.596;2023-02-15T17:40:26;12.10;1.00
37281;DHT22;23169;41.804;12.596;2023-02-15T17:42:55;12.00;1.00
37281;DHT22;23169;41.804;12.596;2023-02-15T17:45:33;11.90;1.00
37281;DHT22;23169;41.804;12.596;2023-02-15T17:48:03;11.80;1.00
37281;DHT22;23169;41.804;12.596;2023-02-15T17:50:33;11.70;1.00
37281;DHT22;23169;41.804;12.596;2023-02-15T17:53:01;11.60;1.00
37281;DHT22;23169;41.804;12.596;2023-02-15T17:55:30;11.60;1.00
37281;DHT22;23169;41.804;12.596;2023-02-15T17:58:15;11.50;1.00
37281;DHT22;23169;41.804;12.596;2023-02-15T18:00:54;11.50;1.00
37281;DHT22;23169;41.804;12.596;2023-02-15T18:03:49;11.50;1.00
37281;DHT22;23169;41.804;12.596;2023-02-15T18:06:40;11.50;1.00
37281;DHT22;23169;41.804;12.596;2023-02-15T18:09:27;11.50;1.00
37281;DHT22;23169;41.804;12.596;2023-02-15T18:12:22;11.50;1.00
37281;DHT22;23169;41.804;12.596;2023-02-15T18:14:51;11.50;1.00
37281;DHT22;23169;41.804;12.596;2023-02-15T18:17:36;11.50;1.00
37281;DHT22;23169;41.804;12.596;2023-02-15T18:20:32;11.50;1.00
37281;DHT22;23169;41.804;12.596;2023-02-15T18:23:02;11.80;1.00
37281;DHT22;23169;41.804;12.596;2023-02-15T18:25:30;11.50;1.00
37281;DHT22;23169;41.804;12.596;2023-02-15T18:27:58;11.70;1.00
37281;DHT22;23169;41.804;12.596;2023-02-15T18:30:27;11.70;1.00
37281;DHT22;23169;41.804;12.596;2023-02-15T18:32:57;11.80;1.00
37281;DHT22;23169;41.804;12.596;2023-02-15T18:35:28;11.80;1.00
37281;DHT22;23169;41.804;12.596;2023-02-15T18:37:59;11.90;1.00
37281;DHT22;23169;41.804;12.596;2023-02-15T18:40:29;11.90;1.00
37281;DHT22;23169;41.804;12.596;2023-02-15T18:42:57;11.90;1.00
37281;DHT22;23169;41.804;12.596;2023-02-15T18:45:27;11.90;1.00
37281;DHT22;23169;41.804;12.596;2023-02-15T18:48:00;12.00;1.00
37281;DHT22;23169;41.804;12.596;2023-02-15T18:50:32;12.00;1.00
37281;DHT22;23169;41.804;12.596;2023-02-15T18:53:04;12.10;1.00
37281;DHT22;23169;41.804;12.596;2023-02-15T18:55:33;12.10;1.00
37281;DHT22;23169;41.804;12.596;2023-02-15T18:58:02;12.10;1.00
37281;DHT22;23169;41.804;12.596;2023-02-15T19:00:33;12.20;1.00
37281;DHT22;23169;41.804;12.596;2023-02-15T19:03:02;12.20;1.00
37281;DHT22;23169;41.804;12.596;2023-02-15T19:05:31;12.10;1.00
37281;DHT22;23169;41.804;12.596;2023-02-15T19:08:01;12.10;1.00
37281;DHT22;23169;41.804;12.596;2023-02-15T19:10:32;12.10;1.00
37281;DHT22;23169;41.804;12.596;2023-02-15T19:13:00;12.10;1.00
37281;DHT22;23169;41.804;12.596;2023-02-15T19:15:29;12.10;1.00
37281;DHT22;23169;41.804;12.596;2023-02-15T19:17:58;12.20;1.00
37281;DHT22;23169;41.804;12.596;2023-02-15T19:20:42;12.10;1.00
37281;DHT22;23169;41.804;12.596;2023-02-15T19:23:16;12.00;1.00
37281;DHT22;23169;41.804;12.596;2023-02-15T19:25:47;11.90;1.00
37281;DHT22;23169;41.804;12.596;2023-02-15T19:28:29;11.80;1.00
37281;DHT22;23169;41.804;12.596;2023-02-15T19:30:58;11.70;1.00
37281;DHT22;23169;41.804;12.596;2023-02-15T19:33:26;11.70;1.00
37281;DHT22;23169;41.804;12.596;2023-02-15T19:35:55;11.70;1.00
37281;DHT22;23169;41.804;12.596;2023-02-15T19:38:27;11.70;1.00
37281;DHT22;23169;41.804;12.596;2023-02-15T19:41:01;11.60;1.00
37281;DHT22;23169;41.804;12.596;2023-02-15T19:43:32;11.50;1.00
37281;DHT22;23169;41.804;12.596;2023-02-15T19:46:01;11.50;1.00
37281;DHT22;23169;41.804;12.596;2023-02-15T19:48:35;11.50;1.00
37281;DHT22;23169;41.804;12.596;2023-02-15T19:51:03;11.40;1.00
37281;DHT22;23169;41.804;12.596;2023-02-15T19:53:32;11.40;1.00
37281;DHT22;23169;41.804;12.596;2023-02-15T19:56:00;11.30;1.00
37281;DHT22;23169;41.804;12.596;2023-02-15T19:58:29;11.30;1.00
37281;DHT22;23169;41.804;12.596;2023-02-15T20:00:58;11.20;1.00
37281;DHT22;23169;41.804;12.596;2023-02-15T20:03:26;11.20;1.00
37281;DHT22;23169;41.804;12.596;2023-02-15T20:05:54;11.10;1.00
37281;DHT22;23169;41.804;12.596;2023-02-15T20:08:22;11.00;1.00
37281;DHT22;23169;41.804;12.596;2023-02-15T20:10:51;11.00;1.00
37281;DHT22;23169;41.804;12.596;2023-02-15T20:13:20;11.00;1.00
37281;DHT22;23169;41.804;12.596;2023-02-15T20:15:49;11.00;1.00
37281;DHT22;23169;41.804;12.596;2023-02-15T20:18:18;11.10;1.00
37281;DHT22;23169;41.804;12.596;2023-02-15T20:23:33;11.00;1.00